createdAt,value
2023-02-17T00:01:22.169Z,83.19
2023-02-17T00:03:51.820Z,82.68
2023-02-17T00:06:21.818Z,82.78
2023-02-17T00:08:51.664Z,83.07
2023-02-17T00:11:20.477Z,82.91
2023-02-17T00:13:48.638Z,82.39
2023-02-17T00:16:20.683Z,81.35
2023-02-17T00:18:53.265Z,82.37
2023-02-17T00:21:23.823Z,80.36
2023-02-17T00:23:54.028Z,79.58
2023-02-17T00:26:22.789Z,79.21
2023-02-17T00:28:51.807Z,80.49
2023-02-17T00:31:22.047Z,80.83
2023-02-17T00:33:50.558Z,81.25
2023-02-17T00:36:20.727Z,79.02
2023-02-17T00:38:50.174Z,80.72
2023-02-17T00:41:20.570Z,77.86
2023-02-17T00:43:49.750Z,77.86
2023-02-17T00:46:19.435Z,75.76
2023-02-17T00:48:47.966Z,75.21
2023-02-17T00:51:16.679Z,73.52
2023-02-17T00:53:45.027Z,74.49
2023-02-17T00:56:13.725Z,74.90
2023-02-17T00:58:43.867Z,75.38
2023-02-17T01:01:13.062Z,77.36
2023-02-17T01:03:42.403Z,76.32
2023-02-17T01:06:22.740Z,76.99
2023-02-17T01:08:50.838Z,76.74
2023-02-17T01:11:20.038Z,76.91
2023-02-17T01:13:49.522Z,78.26
2023-02-17T01:16:18.973Z,75.66
2023-02-17T01:18:47.080Z,78.60
2023-02-17T01:21:19.392Z,76.09
2023-02-17T01:23:49.905Z,76.41
2023-02-17T01:26:21.279Z,78.40
2023-02-17T01:28:51.811Z,79.21
2023-02-17T01:31:22.309Z,78.34
2023-02-17T01:33:51.110Z,78.81
2023-02-17T01:36:20.915Z,78.90
2023-02-17T01:38:49.070Z,78.87
2023-02-17T01:41:22.277Z,80.94
2023-02-17T01:44:10.581Z,81.41
2023-02-17T01:46:40.337Z,79.95
2023-02-17T01:49:18.908Z,78.72
2023-02-17T01:51:50.969Z,80.83
2023-02-17T01:54:23.532Z,80.69
2023-02-17T01:56:52.659Z,80.26
2023-02-17T01:59:23.435Z,80.58
2023-02-17T02:01:55.955Z,82.35
2023-02-17T02:04:27.043Z,81.54
2023-02-17T02:06:55.580Z,81.81
2023-02-17T02:09:29.285Z,78.97
2023-02-17T02:12:00.366Z,80.98
2023-02-17T02:14:34.838Z,80.97
2023-02-17T02:17:13.831Z,81.40
2023-02-17T02:20:14.702Z,80.35
2023-02-17T02:23:12.648Z,79.64
2023-02-17T02:26:21.484Z,80.86
2023-02-17T02:29:12.629Z,80.07
2023-02-17T02:31:56.948Z,80.53
2023-02-17T02:34:32.613Z,80.37
2023-02-17T02:37:07.812Z,80.39
2023-02-17T02:39:40.800Z,80.37
2023-02-17T02:42:14.185Z,79.02
2023-02-17T02:44:42.649Z,80.83
2023-02-17T02:47:43.849Z,80.86
2023-02-17T02:50:18.326Z,81.67
2023-02-17T02:53:00.209Z,82.75
2023-02-17T02:55:42.219Z,80.43
2023-02-17T02:58:18.613Z,81.74
2023-02-17T03:00:55.428Z,79.93
2023-02-17T03:03:30.612Z,79.42
2023-02-17T03:06:07.728Z,80.07
2023-02-17T03:08:40.722Z,80.01
2023-02-17T03:11:08.961Z,80.25
2023-02-17T03:13:39.691Z,80.82
2023-02-17T03:16:12.209Z,80.64
2023-02-17T03:18:40.411Z,78.15
2023-02-17T03:21:15.684Z,78.52
2023-02-17T03:23:44.392Z,75.69
2023-02-17T03:26:12.489Z,75.34
2023-02-17T03:28:40.728Z,76.59
2023-02-17T03:31:08.986Z,75.32
2023-02-17T03:33:37.066Z,75.34
2023-02-17T03:36:05.838Z,73.83
2023-02-17T03:38:35.573Z,73.88
2023-02-17T03:41:03.714Z,72.40
2023-02-17T03:43:31.726Z,71.60
2023-02-17T03:45:59.846Z,72.34
2023-02-17T03:48:28.058Z,72.07
2023-02-17T03:50:56.133Z,73.71
2023-02-17T03:53:24.162Z,74.11
2023-02-17T03:55:53.552Z,74.79
2023-02-17T03:58:21.666Z,74.66
2023-02-17T04:00:49.672Z,74.23
2023-02-17T04:03:17.713Z,74.56
2023-02-17T04:05:46.446Z,74.63
2023-02-17T04:08:14.579Z,74.76
2023-02-17T04:10:42.631Z,74.12
2023-02-17T04:13:12.067Z,73.82
2023-02-17T04:15:40.150Z,73.24
2023-02-17T04:18:08.207Z,73.54
2023-02-17T04:20:36.246Z,74.67
2023-02-17T04:23:04.288Z,75.44
2023-02-17T04:25:34.993Z,75.94
2023-02-17T04:28:03.272Z,76.23
2023-02-17T04:30:32.900Z,75.69
2023-02-17T04:33:01.562Z,76.22
2023-02-17T04:35:29.893Z,75.27
2023-02-17T04:37:58.039Z,74.73
2023-02-17T04:40:26.098Z,74.07
2023-02-17T04:42:54.169Z,74.89
2023-02-17T04:45:22.357Z,74.93
2023-02-17T04:47:51.777Z,74.74
2023-02-17T04:50:21.026Z,76.16
2023-02-17T04:52:49.406Z,76.67
2023-02-17T04:55:17.469Z,76.39
2023-02-17T04:57:45.494Z,77.09
2023-02-17T05:00:14.419Z,75.53
2023-02-17T05:02:42.443Z,74.85
2023-02-17T05:05:15.295Z,73.93
2023-02-17T05:07:43.939Z,73.29
2023-02-17T05:10:12.977Z,71.95
2023-02-17T05:12:41.116Z,72.01
2023-02-17T05:15:10.068Z,72.00
2023-02-17T05:17:38.458Z,71.37
2023-02-17T05:20:07.933Z,71.79
2023-02-17T05:22:37.651Z,72.69
2023-02-17T05:25:06.430Z,73.17
2023-02-17T05:27:34.873Z,73.77
2023-02-17T05:30:02.979Z,71.62
2023-02-17T05:32:31.241Z,72.08
2023-02-17T05:34:59.290Z,71.99
2023-02-17T05:37:28.374Z,73.35
2023-02-17T05:39:57.841Z,72.00
2023-02-17T05:42:28.898Z,71.92
2023-02-17T05:44:57.294Z,71.81
2023-02-17T05:47:27.622Z,71.66
2023-02-17T05:49:55.856Z,70.39
2023-02-17T05:52:23.919Z,71.22
2023-02-17T05:54:51.945Z,71.23
2023-02-17T05:57:21.604Z,71.67
2023-02-17T05:59:49.641Z,69.48
2023-02-17T06:02:17.780Z,69.04
2023-02-17T06:04:45.945Z,68.22
2023-02-17T06:07:14.055Z,68.09
2023-02-17T06:09:42.148Z,69.28
2023-02-17T06:12:10.186Z,68.26
2023-02-17T06:14:39.585Z,66.67
2023-02-17T06:17:07.751Z,66.46
2023-02-17T06:19:35.762Z,65.58
2023-02-17T06:22:03.806Z,65.73
2023-02-17T06:24:31.978Z,65.28
2023-02-17T06:27:00.035Z,66.49
2023-02-17T06:29:28.829Z,65.44
2023-02-17T06:31:58.351Z,65.07
2023-02-17T06:34:26.454Z,66.03
2023-02-17T06:36:54.597Z,66.27
2023-02-17T06:39:22.732Z,66.27
2023-02-17T06:41:51.361Z,65.31
2023-02-17T06:44:19.499Z,65.85
2023-02-17T06:46:47.572Z,64.54
2023-02-17T06:49:17.089Z,64.52
2023-02-17T06:51:45.176Z,64.82
2023-02-17T06:54:13.227Z,64.46
2023-02-17T06:56:41.326Z,64.84
2023-02-17T06:59:09.421Z,66.28
2023-02-17T07:01:37.647Z,66.04
2023-02-17T07:04:05.871Z,65.55
2023-02-17T07:06:37.686Z,65.21
2023-02-17T07:09:06.559Z,66.14
2023-02-17T07:11:34.802Z,65.01
2023-02-17T07:14:02.901Z,66.09
2023-02-17T07:16:31.104Z,64.86
2023-02-17T07:18:59.151Z,64.89
2023-02-17T07:21:27.296Z,65.81
2023-02-17T07:23:56.706Z,65.41
2023-02-17T07:26:24.757Z,65.78
2023-02-17T07:28:52.817Z,68.18
2023-02-17T07:31:21.006Z,66.22
2023-02-17T07:33:50.193Z,64.90
2023-02-17T07:36:18.780Z,65.34
2023-02-17T07:38:46.807Z,65.23
2023-02-17T07:41:18.115Z,65.97
2023-02-17T07:43:47.188Z,66.05
2023-02-17T07:46:17.580Z,65.45
2023-02-17T07:48:46.530Z,65.42
2023-02-17T07:51:17.071Z,63.76
2023-02-17T07:53:45.159Z,63.45
2023-02-17T07:56:15.434Z,62.91
2023-02-17T07:58:46.480Z,63.44
2023-02-17T08:01:17.490Z,62.49
2023-02-17T08:03:46.544Z,61.42
2023-02-17T08:06:16.601Z,60.85
2023-02-17T08:09:01.754Z,60.35
2023-02-17T08:11:49.590Z,59.85
2023-02-17T08:14:21.504Z,58.98
2023-02-17T08:16:49.687Z,59.46
2023-02-17T08:19:18.031Z,59.98
2023-02-17T08:21:46.473Z,61.69
2023-02-17T08:24:15.478Z,60.59
2023-02-17T08:26:43.580Z,60.16
2023-02-17T08:29:11.822Z,60.48
2023-02-17T08:31:41.382Z,60.76
2023-02-17T08:34:11.977Z,60.64
2023-02-17T08:36:40.538Z,59.22
2023-02-17T08:39:13.024Z,61.12
2023-02-17T08:41:42.352Z,60.65
2023-02-17T08:44:12.742Z,61.08
2023-02-17T08:46:43.301Z,59.67
2023-02-17T08:49:11.853Z,59.78
2023-02-17T08:51:40.104Z,59.95
2023-02-17T08:54:10.392Z,59.91
2023-02-17T08:56:40.040Z,62.19
2023-02-17T08:59:10.302Z,62.04
2023-02-17T09:01:39.047Z,61.79
2023-02-17T09:04:10.335Z,61.94
2023-02-17T09:06:41.049Z,62.06
2023-02-17T09:09:10.902Z,62.79
2023-02-17T09:11:39.248Z,61.98
2023-02-17T09:14:07.914Z,61.97
2023-02-17T09:16:36.393Z,61.75
2023-02-17T09:19:05.442Z,61.69
2023-02-17T09:21:35.051Z,60.91
2023-02-17T09:24:03.363Z,62.82
2023-02-17T09:26:31.467Z,62.74
2023-02-17T09:28:59.513Z,62.25
2023-02-17T09:31:31.308Z,62.90
2023-02-17T09:33:59.867Z,64.82
2023-02-17T09:36:30.136Z,63.66
2023-02-17T09:38:59.835Z,66.39
2023-02-17T09:41:35.819Z,63.68
2023-02-17T09:44:04.014Z,63.41
2023-02-17T09:46:36.152Z,63.70
2023-02-17T09:49:12.510Z,64.39
2023-02-17T09:51:44.946Z,64.57
2023-02-17T09:54:19.351Z,65.23
2023-02-17T09:56:51.924Z,65.04
2023-02-17T09:59:24.849Z,65.69
2023-02-17T10:01:55.176Z,65.72
2023-02-17T10:04:27.849Z,64.98
2023-02-17T10:07:02.865Z,65.67
2023-02-17T10:09:36.716Z,66.40
2023-02-17T10:12:09.739Z,67.16
2023-02-17T10:14:44.570Z,65.98
2023-02-17T10:17:22.030Z,66.84
2023-02-17T10:19:55.467Z,66.18
2023-02-17T10:22:25.661Z,67.68
2023-02-17T10:24:55.185Z,68.09
2023-02-17T10:27:34.890Z,68.32
2023-02-17T10:30:23.188Z,67.55
2023-02-17T10:33:00.512Z,66.86
2023-02-17T10:35:46.480Z,68.39
2023-02-17T10:38:18.806Z,67.46
2023-02-17T10:40:52.450Z,69.86
2023-02-17T10:43:27.094Z,69.05
2023-02-17T10:45:55.935Z,70.30
2023-02-17T10:48:35.865Z,72.60
2023-02-17T10:51:04.596Z,73.76
2023-02-17T10:53:35.530Z,72.18
2023-02-17T10:56:10.877Z,70.99
2023-02-17T10:58:48.172Z,73.55
2023-02-17T11:01:16.181Z,72.69
2023-02-17T11:03:44.336Z,73.96
2023-02-17T11:06:18.838Z,74.03
2023-02-17T11:08:50.813Z,75.88
2023-02-17T11:11:22.540Z,77.32
2023-02-17T11:14:10.757Z,77.24
2023-02-17T11:16:40.946Z,76.53
2023-02-17T11:19:22.770Z,78.96
2023-02-17T11:21:52.944Z,78.66
2023-02-17T11:24:21.822Z,76.85
2023-02-17T11:26:59.874Z,78.65
2023-02-17T11:29:28.647Z,76.68
2023-02-17T11:31:59.566Z,73.55
2023-02-17T11:34:30.361Z,74.15
2023-02-17T11:37:01.795Z,78.77
2023-02-17T11:39:30.550Z,77.45
2023-02-17T11:41:59.970Z,77.27
2023-02-17T11:44:29.522Z,80.62
2023-02-17T11:47:09.584Z,79.43
2023-02-17T11:50:00.766Z,78.06
2023-02-17T11:52:44.888Z,75.99
2023-02-17T11:55:21.958Z,77.34
2023-02-17T11:58:08.802Z,78.71
2023-02-17T12:00:46.322Z,77.66
2023-02-17T12:03:29.821Z,76.67
2023-02-17T12:06:09.595Z,77.72
2023-02-17T12:08:53.233Z,76.70
2023-02-17T12:11:27.890Z,80.13
2023-02-17T12:14:10.872Z,79.03
2023-02-17T12:16:49.236Z,77.78
2023-02-17T12:19:41.417Z,80.59
2023-02-17T12:22:18.868Z,81.57
2023-02-17T12:24:59.375Z,79.98
2023-02-17T12:27:45.057Z,80.24
2023-02-17T12:30:27.779Z,80.46
2023-02-17T12:33:13.509Z,79.47
2023-02-17T12:35:51.148Z,80.73
2023-02-17T12:38:23.245Z,77.96
2023-02-17T12:40:56.864Z,80.59
2023-02-17T12:43:28.694Z,81.11
2023-02-17T12:46:01.251Z,80.19
2023-02-17T12:48:36.946Z,81.12
2023-02-17T12:51:10.589Z,79.80
2023-02-17T12:53:50.271Z,82.06
2023-02-17T12:56:50.652Z,79.49
2023-02-17T12:59:21.886Z,82.06
2023-02-17T13:02:00.655Z,81.70
2023-02-17T13:04:31.102Z,82.71
2023-02-17T13:07:21.327Z,79.85
2023-02-17T13:09:51.335Z,79.03
2023-02-17T13:12:34.231Z,81.07
2023-02-17T13:15:05.137Z,80.92
2023-02-17T13:17:38.340Z,80.30
2023-02-17T13:20:29.062Z,80.06
2023-02-17T13:23:13.659Z,80.36
2023-02-17T13:25:42.262Z,78.05
2023-02-17T13:28:37.165Z,79.39
2023-02-17T13:31:26.971Z,78.41
2023-02-17T13:33:58.411Z,78.79
2023-02-17T13:36:37.017Z,79.06
2023-02-17T13:39:08.570Z,79.10
2023-02-17T13:41:47.858Z,79.33
2023-02-17T13:44:28.457Z,79.79
2023-02-17T13:46:59.975Z,77.28
2023-02-17T13:49:34.038Z,78.04
2023-02-17T13:52:10.369Z,80.50
2023-02-17T13:54:38.591Z,77.10
2023-02-17T13:57:06.590Z,79.39
2023-02-17T13:59:37.238Z,77.71
2023-02-17T14:02:05.466Z,76.12
2023-02-17T14:04:35.053Z,78.17
2023-02-17T14:07:06.152Z,77.65
2023-02-17T14:09:36.163Z,79.16
2023-02-17T14:12:07.850Z,76.82
2023-02-17T14:14:38.500Z,76.52
2023-02-17T14:17:09.233Z,75.17
2023-02-17T14:19:49.389Z,75.08
2023-02-17T14:22:28.760Z,77.52
2023-02-17T14:25:02.905Z,77.52
2023-02-17T14:27:42.686Z,76.72
2023-02-17T14:30:15.402Z,76.39
2023-02-17T14:32:43.685Z,77.26
2023-02-17T14:35:24.806Z,76.31
2023-02-17T14:37:52.927Z,73.49
2023-02-17T14:40:24.387Z,76.67
2023-02-17T14:42:52.736Z,77.16
2023-02-17T14:45:20.858Z,75.93
2023-02-17T14:47:48.996Z,77.77
2023-02-17T14:50:17.638Z,77.78
2023-02-17T14:52:49.127Z,76.10
2023-02-17T14:55:26.038Z,75.78
2023-02-17T14:57:54.741Z,76.59
2023-02-17T15:00:23.155Z,76.64
2023-02-17T15:02:51.542Z,75.82
2023-02-17T15:05:20.250Z,75.54
2023-02-17T15:07:49.823Z,74.18
2023-02-17T15:10:21.891Z,74.73
2023-02-17T15:12:49.973Z,73.70
2023-02-17T15:15:19.322Z,73.81
2023-02-17T15:17:47.942Z,75.66
2023-02-17T15:20:17.896Z,76.48
2023-02-17T15:22:46.110Z,78.04
2023-02-17T15:25:19.242Z,79.61
2023-02-17T15:27:48.307Z,80.63
2023-02-17T15:30:17.769Z,81.57
2023-02-17T15:32:46.752Z,81.69
2023-02-17T15:35:20.725Z,82.05
2023-02-17T15:37:49.316Z,84.58
2023-02-17T15:40:20.417Z,83.64
2023-02-17T15:42:54.657Z,83.25
2023-02-17T15:45:23.566Z,82.51
2023-02-17T15:47:53.803Z,84.83
2023-02-17T15:50:23.888Z,85.00
2023-02-17T15:52:52.423Z,85.28
2023-02-17T15:55:23.658Z,84.56
2023-02-17T15:57:55.036Z,85.52
2023-02-17T16:00:25.139Z,86.15
2023-02-17T16:02:53.613Z,85.66
2023-02-17T16:05:24.189Z,85.99
2023-02-17T16:07:52.642Z,85.93
2023-02-17T16:10:24.329Z,86.37
2023-02-17T16:12:53.300Z,85.27
2023-02-17T16:15:24.086Z,84.69
2023-02-17T16:17:52.523Z,85.15
2023-02-17T16:20:22.263Z,84.65
2023-02-17T16:22:50.320Z,83.59
2023-02-17T16:25:19.819Z,84.50
2023-02-17T16:27:51.678Z,84.81
2023-02-17T16:30:22.519Z,83.55
2023-02-17T16:32:52.502Z,83.98
2023-02-17T16:35:22.849Z,83.62
2023-02-17T16:37:55.347Z,83.78
2023-02-17T16:40:26.269Z,83.14
2023-02-17T16:42:56.252Z,82.11
2023-02-17T16:45:26.898Z,82.28
2023-02-17T16:47:57.399Z,81.79
2023-02-17T16:50:28.201Z,82.28
2023-02-17T16:52:58.826Z,84.20
2023-02-17T16:55:29.595Z,83.96
2023-02-17T16:57:59.759Z,83.31
2023-02-17T17:00:31.460Z,84.38
2023-02-17T17:03:00.260Z,84.55
2023-02-17T17:05:31.126Z,83.69
2023-02-17T17:07:59.176Z,83.94
2023-02-17T17:10:30.720Z,83.01
2023-02-17T17:13:00.835Z,83.74
2023-02-17T17:15:29.495Z,83.36
2023-02-17T17:17:59.869Z,83.78
2023-02-17T17:20:32.017Z,83.69
2023-02-17T17:23:00.864Z,83.18
2023-02-17T17:25:29.979Z,85.45
2023-02-17T17:27:58.504Z,84.53
2023-02-17T17:30:31.469Z,86.09
2023-02-17T17:33:00.154Z,85.12
2023-02-17T17:35:29.276Z,85.72
2023-02-17T17:37:58.790Z,84.53
2023-02-17T17:40:29.112Z,82.94
2023-02-17T17:42:57.202Z,82.68
2023-02-17T17:45:27.256Z,81.57
2023-02-17T17:47:55.630Z,83.34
2023-02-17T17:50:25.377Z,83.12
2023-02-17T17:52:54.001Z,83.99
2023-02-17T17:55:22.160Z,82.29
2023-02-17T17:57:50.204Z,81.61
2023-02-17T18:00:19.795Z,81.97
2023-02-17T18:02:49.239Z,80.72
2023-02-17T18:05:17.410Z,83.38
2023-02-17T18:07:47.985Z,83.36
2023-02-17T18:10:17.743Z,83.26
2023-02-17T18:12:47.733Z,83.79
2023-02-17T18:15:16.918Z,83.95
2023-02-17T18:17:46.658Z,83.40
2023-02-17T18:20:16.394Z,82.56
2023-02-17T18:22:44.871Z,84.44
2023-02-17T18:25:13.328Z,84.63
2023-02-17T18:27:42.512Z,83.19
2023-02-17T18:30:12.115Z,85.44
2023-02-17T18:32:40.289Z,84.66
2023-02-17T18:35:09.056Z,85.57
2023-02-17T18:37:40.317Z,84.79
2023-02-17T18:40:12.526Z,84.71
2023-02-17T18:42:40.754Z,86.07
2023-02-17T18:45:10.377Z,87.82
2023-02-17T18:47:38.542Z,87.43
2023-02-17T18:50:08.500Z,88.99
2023-02-17T18:52:39.570Z,89.10
2023-02-17T18:55:08.435Z,89.42
2023-02-17T18:57:36.971Z,89.02
2023-02-17T19:00:05.988Z,90.10
2023-02-17T19:02:36.779Z,91.63
2023-02-17T19:05:05.676Z,92.19
2023-02-17T19:07:34.543Z,91.51
2023-02-17T19:10:04.552Z,91.14
2023-02-17T19:12:34.230Z,90.72
2023-02-17T19:15:02.612Z,90.28
2023-02-17T19:17:30.756Z,90.72
2023-02-17T19:19:58.805Z,87.98
2023-02-17T19:22:26.916Z,89.28
2023-02-17T19:24:55.963Z,87.42
2023-02-17T19:27:25.421Z,88.94
2023-02-17T19:29:53.522Z,87.40
2023-02-17T19:32:21.920Z,88.92
2023-02-17T19:34:50.297Z,88.51
2023-02-17T19:37:18.359Z,88.55
2023-02-17T19:39:46.673Z,87.07
2023-02-17T19:42:14.733Z,87.24
2023-02-17T19:44:44.218Z,87.10
2023-02-17T19:47:12.300Z,88.31
2023-02-17T19:49:40.431Z,89.93
2023-02-17T19:52:09.129Z,90.56
2023-02-17T19:54:37.425Z,89.42
2023-02-17T19:57:05.665Z,91.45
2023-02-17T19:59:34.626Z,88.76
2023-02-17T20:02:04.159Z,91.46
2023-02-17T20:04:32.218Z,91.97
2023-02-17T20:07:00.245Z,92.02
2023-02-17T20:09:28.303Z,93.16
2023-02-17T20:11:56.500Z,94.50
2023-02-17T20:14:24.805Z,95.51
2023-02-17T20:16:55.687Z,96.57
2023-02-17T20:19:25.155Z,96.21
2023-02-17T20:21:53.248Z,97.86
2023-02-17T20:24:21.421Z,98.50
2023-02-17T20:26:53.692Z,98.48
2023-02-17T20:29:21.938Z,97.96
2023-02-17T20:31:50.283Z,97.30
2023-02-17T20:34:29.804Z,97.58
2023-02-17T20:36:58.286Z,96.59
2023-02-17T20:39:26.948Z,96.18
2023-02-17T20:41:55.576Z,97.85
2023-02-17T20:44:27.709Z,95.62
2023-02-17T20:46:57.069Z,96.68
2023-02-17T20:49:25.658Z,95.89
2023-02-17T20:51:55.337Z,96.10
2023-02-17T20:54:25.520Z,95.05
2023-02-17T20:56:53.917Z,95.38
2023-02-17T20:59:22.094Z,95.96
2023-02-17T21:01:50.665Z,94.57
2023-02-17T21:04:18.812Z,94.29
2023-02-17T21:06:47.537Z,94.27
2023-02-17T21:09:19.709Z,94.74
2023-02-17T21:11:48.157Z,94.51
2023-02-17T21:14:16.263Z,92.33
2023-02-17T21:16:44.979Z,91.83
2023-02-17T21:19:13.241Z,91.61
2023-02-17T21:21:41.937Z,90.82
2023-02-17T21:24:10.008Z,90.70
2023-02-17T21:26:40.099Z,90.75
2023-02-17T21:29:08.251Z,89.99
2023-02-17T21:31:37.130Z,89.51
2023-02-17T21:34:06.019Z,89.52
2023-02-17T21:36:34.171Z,90.37
2023-02-17T21:39:03.825Z,88.66
2023-02-17T21:41:32.678Z,89.56
2023-02-17T21:44:19.938Z,89.17
2023-02-17T21:46:48.056Z,89.74
2023-02-17T21:49:16.143Z,89.70
2023-02-17T21:51:44.951Z,87.99
2023-02-17T21:54:13.760Z,88.14
2023-02-17T21:56:41.862Z,89.32
2023-02-17T21:59:11.356Z,90.23
2023-02-17T22:01:39.395Z,89.07
2023-02-17T22:04:08.201Z,87.86
2023-02-17T22:06:38.894Z,89.56
2023-02-17T22:09:08.772Z,87.28
2023-02-17T22:11:40.013Z,87.34
2023-02-17T22:14:11.112Z,90.45
2023-02-17T22:16:41.356Z,88.75
2023-02-17T22:19:13.776Z,89.35
2023-02-17T22:21:43.527Z,90.04
2023-02-17T22:24:12.017Z,89.89
2023-02-17T22:26:40.068Z,89.15
2023-02-17T22:29:08.227Z,87.96
2023-02-17T22:31:36.681Z,90.00
2023-02-17T22:34:10.106Z,90.65
2023-02-17T22:36:38.790Z,89.36
2023-02-17T22:39:09.013Z,90.60
2023-02-17T22:41:38.874Z,92.58
2023-02-17T22:44:07.236Z,95.13
2023-02-17T22:46:35.589Z,93.36
2023-02-17T22:49:05.095Z,93.28
2023-02-17T22:51:36.455Z,93.66
2023-02-17T22:54:05.804Z,93.94
2023-02-17T22:56:34.720Z,92.24
2023-02-17T22:59:04.409Z,93.03
2023-02-17T23:01:33.961Z,90.94
2023-02-17T23:04:02.339Z,89.31
2023-02-17T23:06:33.789Z,87.92
2023-02-17T23:09:02.651Z,87.12
2023-02-17T23:11:52.463Z,86.49
2023-02-17T23:14:23.861Z,85.89
2023-02-17T23:16:53.083Z,85.68
2023-02-17T23:19:22.871Z,85.18
2023-02-17T23:21:54.117Z,85.09
2023-02-17T23:24:23.630Z,84.13
2023-02-17T23:26:52.513Z,84.73
2023-02-17T23:29:20.969Z,83.97
2023-02-17T23:31:49.165Z,83.55
2023-02-17T23:34:18.025Z,83.49
2023-02-17T23:36:47.122Z,83.94
2023-02-17T23:39:17.396Z,84.48
2023-02-17T23:41:45.978Z,84.09
2023-02-17T23:44:15.290Z,83.84
2023-02-17T23:46:44.886Z,84.07
2023-02-17T23:49:15.471Z,84.62
2023-02-17T23:51:44.524Z,83.27
2023-02-17T23:54:12.581Z,86.95
2023-02-17T23:56:42.061Z,87.23
2023-02-17T23:59:11.736Z,87.81
